createdAt,value
2023-05-21T00:01:08.207Z,0
2023-05-21T00:02:24.397Z,0
2023-05-21T00:03:40.422Z,0
2023-05-21T00:04:56.610Z,0
2023-05-21T00:06:12.950Z,0
2023-05-21T00:07:28.982Z,0
2023-05-21T00:08:45.345Z,0
2023-05-21T00:10:00.533Z,0
2023-05-21T00:11:16.571Z,0
2023-05-21T00:12:32.922Z,0
2023-05-21T00:13:48.953Z,0
2023-05-21T00:15:05.296Z,0
2023-05-21T00:16:21.317Z,0
2023-05-21T00:17:37.509Z,0
2023-05-21T00:18:53.868Z,0
2023-05-21T00:20:09.889Z,0
2023-05-21T00:21:26.249Z,0
2023-05-21T00:22:42.264Z,0
2023-05-21T00:23:58.628Z,0
2023-05-21T00:25:14.816Z,0
2023-05-21T00:26:30.019Z,0
2023-05-21T00:27:46.213Z,0
2023-05-21T00:29:02.226Z,0
2023-05-21T00:30:18.416Z,0
2023-05-21T00:31:34.778Z,0
2023-05-21T00:32:50.798Z,0
2023-05-21T00:34:07.151Z,0
2023-05-21T00:35:23.328Z,0
2023-05-21T00:36:39.520Z,0
2023-05-21T00:39:11.912Z,0
2023-05-21T00:40:28.098Z,0
2023-05-21T00:41:44.121Z,0
2023-05-21T00:42:59.320Z,0
2023-05-21T00:44:15.674Z,0
2023-05-21T00:45:31.697Z,0
2023-05-21T00:46:48.053Z,0
2023-05-21T00:48:04.245Z,0
2023-05-21T00:49:20.423Z,0
2023-05-21T00:50:36.627Z,0
2023-05-21T00:51:52.804Z,0
2023-05-21T00:53:08.817Z,0
2023-05-21T00:54:25.181Z,0
2023-05-21T00:55:41.376Z,0
2023-05-21T00:56:57.553Z,0
2023-05-21T00:58:13.749Z,0
2023-05-21T00:59:28.955Z,0
2023-05-21T01:00:44.980Z,0
2023-05-21T01:02:01.325Z,0
2023-05-21T01:03:17.517Z,0
2023-05-21T01:04:33.706Z,0
2023-05-21T01:05:49.905Z,0
2023-05-21T01:07:05.927Z,0
2023-05-21T01:08:22.109Z,0
2023-05-21T01:09:38.476Z,0
2023-05-21T01:10:54.658Z,0
2023-05-21T01:12:10.853Z,0
2023-05-21T01:13:27.042Z,0
2023-05-21T01:14:43.213Z,0
2023-05-21T01:15:58.426Z,0
2023-05-21T01:17:14.615Z,0
2023-05-21T01:18:30.635Z,0
2023-05-21T01:19:46.826Z,0
2023-05-21T01:21:03.192Z,0
2023-05-21T01:22:19.190Z,0
2023-05-21T01:23:35.378Z,0
2023-05-21T01:24:51.744Z,0
2023-05-21T01:26:07.939Z,0
2023-05-21T01:27:24.120Z,0
2023-05-21T01:28:40.309Z,0
2023-05-21T01:29:56.512Z,0
2023-05-21T01:31:12.526Z,0
2023-05-21T01:32:27.730Z,0
2023-05-21T01:33:43.901Z,0
2023-05-21T01:35:00.278Z,0
2023-05-21T01:36:16.287Z,0
2023-05-21T01:37:32.650Z,0
2023-05-21T01:38:48.674Z,0
2023-05-21T01:40:04.857Z,0
2023-05-21T01:41:21.042Z,0
2023-05-21T01:42:37.400Z,0
2023-05-21T01:43:53.592Z,0
2023-05-21T01:45:09.796Z,0
2023-05-21T01:46:25.979Z,0
2023-05-21T01:47:42.172Z,0
2023-05-21T01:48:57.368Z,0
2023-05-21T01:50:13.550Z,0
2023-05-21T01:51:29.750Z,0
2023-05-21T01:52:45.748Z,0
2023-05-21T01:54:01.953Z,0
2023-05-21T01:55:18.319Z,0
2023-05-21T01:56:33.522Z,0
2023-05-21T01:57:49.527Z,0
2023-05-21T01:59:05.721Z,0
2023-05-21T02:00:22.085Z,0
2023-05-21T02:01:38.099Z,0
2023-05-21T02:02:54.461Z,0
2023-05-21T02:04:10.664Z,0
2023-05-21T02:05:26.855Z,0
2023-05-21T02:06:43.045Z,0
2023-05-21T02:07:59.233Z,0
2023-05-21T02:09:15.238Z,0
2023-05-21T02:10:31.425Z,0
2023-05-21T02:11:47.789Z,0
2023-05-21T02:13:02.987Z,0
2023-05-21T02:14:19.183Z,0
2023-05-21T02:15:35.190Z,0
2023-05-21T02:16:51.368Z,0
2023-05-21T02:18:07.747Z,0
2023-05-21T02:19:23.938Z,0
2023-05-21T02:20:40.122Z,0
2023-05-21T02:21:56.309Z,0
2023-05-21T02:23:12.316Z,0
2023-05-21T02:24:28.504Z,0
2023-05-21T02:25:44.879Z,0
2023-05-21T02:27:01.083Z,0
2023-05-21T02:28:17.257Z,0
2023-05-21T02:29:32.280Z,0
2023-05-21T02:30:48.648Z,0
2023-05-21T02:32:04.657Z,0
2023-05-21T02:33:20.849Z,0
2023-05-21T02:34:37.037Z,0
2023-05-21T02:35:53.227Z,0
2023-05-21T02:37:09.600Z,0
2023-05-21T02:38:25.794Z,0
2023-05-21T02:39:41.780Z,0
2023-05-21T02:40:58.162Z,0
2023-05-21T02:42:14.362Z,0
2023-05-21T02:43:30.546Z,0
2023-05-21T02:44:46.533Z,0
2023-05-21T02:46:01.745Z,0
2023-05-21T02:47:17.933Z,0
2023-05-21T02:48:34.119Z,0
2023-05-21T02:49:50.508Z,0
2023-05-21T02:51:06.702Z,0
2023-05-21T02:52:22.885Z,0
2023-05-21T02:53:39.067Z,0
2023-05-21T02:54:55.057Z,0
2023-05-21T02:56:11.442Z,0
2023-05-21T02:57:27.452Z,0
2023-05-21T02:58:43.818Z,0
2023-05-21T03:00:00.016Z,0
2023-05-21T03:01:16.018Z,0
2023-05-21T03:02:31.207Z,0
2023-05-21T03:03:47.604Z,0
2023-05-21T03:05:03.788Z,0
2023-05-21T03:06:19.971Z,0
2023-05-21T03:07:35.970Z,0
2023-05-21T03:08:52.165Z,0
2023-05-21T03:10:08.337Z,0
2023-05-21T03:11:24.531Z,0
2023-05-21T03:12:40.913Z,0
2023-05-21T03:13:56.905Z,0
2023-05-21T03:15:13.097Z,0
2023-05-21T03:16:29.477Z,0
2023-05-21T03:17:45.468Z,0
2023-05-21T03:19:00.886Z,5
2023-05-21T03:20:17.074Z,5
2023-05-21T03:21:33.253Z,5
2023-05-21T03:22:49.248Z,5
2023-05-21T03:24:05.637Z,5
2023-05-21T03:25:21.623Z,5
2023-05-21T03:26:37.808Z,5
2023-05-21T03:27:54.196Z,5
2023-05-21T03:29:10.391Z,5
2023-05-21T03:30:26.580Z,5
2023-05-21T03:31:42.567Z,5
2023-05-21T03:32:58.750Z,5
2023-05-21T03:34:14.942Z,5
2023-05-21T03:35:30.341Z,11
2023-05-21T03:36:46.549Z,11
2023-05-21T03:38:02.532Z,11
2023-05-21T03:39:18.715Z,11
2023-05-21T03:40:34.902Z,11
2023-05-21T03:41:51.085Z,11
2023-05-21T03:43:07.274Z,11
2023-05-21T03:44:23.475Z,11
2023-05-21T03:45:39.661Z,11
2023-05-21T03:46:56.060Z,11
2023-05-21T03:48:12.039Z,11
2023-05-21T03:49:28.419Z,11
2023-05-21T03:50:44.609Z,16
2023-05-21T03:51:59.610Z,16
2023-05-21T03:53:15.808Z,16
2023-05-21T03:54:32.208Z,16
2023-05-21T03:55:48.177Z,16
2023-05-21T03:57:04.584Z,16
2023-05-21T03:58:20.769Z,16
2023-05-21T03:59:36.758Z,16
2023-05-21T04:00:53.148Z,22
2023-05-21T04:02:09.334Z,22
2023-05-21T04:03:25.521Z,22
2023-05-21T04:04:41.505Z,22
2023-05-21T04:05:57.897Z,22
2023-05-21T04:07:13.876Z,22
2023-05-21T04:08:29.089Z,28
2023-05-21T04:09:45.481Z,28
2023-05-21T04:11:01.461Z,28
2023-05-21T04:12:17.867Z,28
2023-05-21T04:13:34.040Z,28
2023-05-21T04:14:50.022Z,33
2023-05-21T04:16:06.423Z,33
2023-05-21T04:17:22.409Z,33
2023-05-21T04:18:38.599Z,33
2023-05-21T04:19:55.001Z,33
2023-05-21T04:21:11.175Z,33
2023-05-21T04:22:27.368Z,39
2023-05-21T04:23:43.550Z,39
2023-05-21T04:24:58.565Z,39
2023-05-21T04:26:14.748Z,39
2023-05-21T04:27:31.139Z,39
2023-05-21T04:28:47.331Z,39
2023-05-21T04:30:03.315Z,45
2023-05-21T04:31:19.508Z,45
2023-05-21T04:32:35.901Z,45
2023-05-21T04:33:51.880Z,45
2023-05-21T04:35:08.269Z,45
2023-05-21T04:36:24.469Z,45
2023-05-21T04:37:40.451Z,45
2023-05-21T04:38:56.841Z,50
2023-05-21T04:40:12.820Z,50
2023-05-21T04:41:28.029Z,50
2023-05-21T04:42:44.223Z,50
2023-05-21T04:44:00.623Z,50
2023-05-21T04:45:16.810Z,56
2023-05-21T04:46:32.994Z,56
2023-05-21T04:47:49.174Z,56
2023-05-21T04:49:05.158Z,56
2023-05-21T04:50:21.551Z,56
2023-05-21T04:51:37.751Z,56
2023-05-21T04:52:53.717Z,61
2023-05-21T04:54:09.918Z,61
2023-05-21T04:55:26.097Z,61
2023-05-21T04:56:42.293Z,61
2023-05-21T04:57:57.719Z,61
2023-05-21T04:59:13.678Z,61
2023-05-21T05:00:30.078Z,61
2023-05-21T05:01:46.053Z,61
2023-05-21T05:03:02.251Z,61
2023-05-21T05:04:18.646Z,61
2023-05-21T05:05:34.625Z,61
2023-05-21T05:06:51.040Z,67
2023-05-21T05:08:07.006Z,67
2023-05-21T05:09:23.191Z,67
2023-05-21T05:10:39.600Z,67
2023-05-21T05:11:55.575Z,67
2023-05-21T05:13:11.974Z,73
2023-05-21T05:14:26.967Z,73
2023-05-21T05:15:43.368Z,73
2023-05-21T05:16:59.332Z,73
2023-05-21T05:18:15.751Z,73
2023-05-21T05:19:31.705Z,73
2023-05-21T05:20:47.886Z,78
2023-05-21T05:22:04.310Z,78
2023-05-21T05:23:20.495Z,78
2023-05-21T05:24:36.679Z,78
2023-05-21T05:25:52.876Z,78
2023-05-21T05:27:08.839Z,84
2023-05-21T05:28:25.247Z,84
2023-05-21T05:29:41.427Z,84
2023-05-21T05:30:56.407Z,84
2023-05-21T05:32:12.819Z,84
2023-05-21T05:33:28.784Z,84
2023-05-21T05:34:44.967Z,90
2023-05-21T05:36:01.369Z,90
2023-05-21T05:37:17.564Z,90
2023-05-21T05:38:33.756Z,90
2023-05-21T05:39:49.939Z,90
2023-05-21T05:41:06.127Z,90
2023-05-21T05:42:22.087Z,90
2023-05-21T05:43:38.497Z,95
2023-05-21T05:44:54.456Z,95
2023-05-21T05:46:10.650Z,95
2023-05-21T05:47:26.073Z,95
2023-05-21T05:48:42.047Z,95
2023-05-21T05:49:58.231Z,95
2023-05-21T05:51:14.418Z,90
2023-05-21T05:52:30.826Z,95
2023-05-21T05:53:47.020Z,95
2023-05-21T05:55:03.201Z,95
2023-05-21T05:56:19.388Z,95
2023-05-21T05:57:35.357Z,95
2023-05-21T05:58:51.540Z,95
2023-05-21T06:00:07.718Z,95
2023-05-21T06:01:24.143Z,101
2023-05-21T06:02:40.319Z,101
2023-05-21T06:03:56.411Z,101
2023-05-21T06:05:12.822Z,101
2023-05-21T06:06:29.003Z,101
2023-05-21T06:07:45.198Z,101
2023-05-21T06:09:01.373Z,101
2023-05-21T06:10:17.574Z,101
2023-05-21T06:11:32.538Z,101
2023-05-21T06:12:48.743Z,101
2023-05-21T06:14:04.925Z,101
2023-05-21T06:15:21.101Z,101
2023-05-21T06:16:37.520Z,101
2023-05-21T06:17:53.708Z,95
2023-05-21T06:19:09.905Z,95
2023-05-21T06:20:26.095Z,95
2023-05-21T06:21:42.272Z,95
2023-05-21T06:22:58.457Z,90
2023-05-21T06:24:14.413Z,90
2023-05-21T06:25:30.600Z,90
2023-05-21T06:26:47.030Z,90
2023-05-21T06:28:01.988Z,90
2023-05-21T06:29:18.420Z,90
2023-05-21T06:30:34.598Z,84
2023-05-21T06:31:50.791Z,84
2023-05-21T06:33:06.976Z,84
2023-05-21T06:34:23.155Z,78
2023-05-21T06:35:39.116Z,73
2023-05-21T06:36:55.311Z,73
2023-05-21T06:38:11.734Z,67
2023-05-21T06:39:27.916Z,67
2023-05-21T06:40:43.862Z,67
2023-05-21T06:42:00.278Z,67
2023-05-21T06:43:16.234Z,67
2023-05-21T06:44:31.675Z,61
2023-05-21T06:45:47.867Z,61
2023-05-21T06:47:04.058Z,61
2023-05-21T06:48:20.248Z,61
2023-05-21T06:49:36.189Z,61
2023-05-21T06:50:52.366Z,61
2023-05-21T06:52:08.792Z,61
2023-05-21T06:53:24.983Z,56
2023-05-21T06:54:40.929Z,56
2023-05-21T06:55:57.356Z,56
2023-05-21T06:57:13.312Z,56
2023-05-21T06:58:29.488Z,56
2023-05-21T06:59:45.920Z,56
2023-05-21T07:01:01.133Z,56
2023-05-21T07:02:17.080Z,56
2023-05-21T07:03:33.506Z,56
2023-05-21T07:04:49.688Z,56
2023-05-21T07:06:05.627Z,56
2023-05-21T07:07:22.066Z,61
2023-05-21T07:08:38.003Z,61
2023-05-21T07:09:54.190Z,61
2023-05-21T07:11:10.632Z,61
2023-05-21T07:12:26.570Z,61
2023-05-21T07:13:42.760Z,61
2023-05-21T07:14:59.186Z,67
2023-05-21T07:16:15.381Z,67
2023-05-21T07:17:30.569Z,73
2023-05-21T07:18:46.769Z,78
2023-05-21T07:20:02.943Z,78
2023-05-21T07:21:18.887Z,78
2023-05-21T07:22:35.076Z,78
2023-05-21T07:23:51.517Z,84
2023-05-21T07:25:07.704Z,84
2023-05-21T07:26:23.890Z,84
2023-05-21T07:27:39.830Z,84
2023-05-21T07:28:56.021Z,84
2023-05-21T07:30:12.441Z,84
2023-05-21T07:31:28.382Z,84
2023-05-21T07:32:44.830Z,90
2023-05-21T07:34:00.028Z,90
2023-05-21T07:35:15.973Z,90
2023-05-21T07:36:32.393Z,90
2023-05-21T07:37:48.580Z,90
2023-05-21T07:39:04.775Z,90
2023-05-21T07:40:20.967Z,90
2023-05-21T07:41:37.142Z,90
2023-05-21T07:42:53.343Z,90
2023-05-21T07:44:09.277Z,90
2023-05-21T07:45:25.716Z,90
2023-05-21T07:46:41.904Z,95
2023-05-21T07:47:58.077Z,95
2023-05-21T07:49:14.014Z,95
2023-05-21T07:50:29.468Z,95
2023-05-21T07:51:45.405Z,95
2023-05-21T07:53:01.587Z,95
2023-05-21T07:54:18.027Z,95
2023-05-21T07:55:34.220Z,95
2023-05-21T07:56:50.163Z,95
2023-05-21T07:58:06.348Z,95
2023-05-21T07:59:22.542Z,95
2023-05-21T08:00:38.719Z,95
2023-05-21T08:01:55.152Z,95
2023-05-21T08:03:11.345Z,101
2023-05-21T08:04:27.282Z,101
2023-05-21T08:05:43.471Z,101
2023-05-21T08:06:58.677Z,101
2023-05-21T08:08:15.114Z,101
2023-05-21T08:09:31.299Z,101
2023-05-21T08:10:47.484Z,106
2023-05-21T08:12:03.682Z,106
2023-05-21T08:13:19.596Z,106
2023-05-21T08:14:36.052Z,106
2023-05-21T08:15:52.241Z,106
2023-05-21T08:17:08.419Z,106
2023-05-21T08:18:24.359Z,106
2023-05-21T08:19:40.535Z,106
2023-05-21T08:20:56.731Z,106
2023-05-21T08:22:12.912Z,106
2023-05-21T08:23:28.341Z,106
2023-05-21T08:24:44.534Z,106
2023-05-21T08:26:00.483Z,106
2023-05-21T08:27:16.677Z,112
2023-05-21T08:28:32.870Z,112
2023-05-21T08:29:49.045Z,112
2023-05-21T08:31:05.227Z,112
2023-05-21T08:32:21.650Z,112
2023-05-21T08:33:37.843Z,112
2023-05-21T08:34:54.035Z,112
2023-05-21T08:36:10.206Z,118
2023-05-21T08:37:26.175Z,118
2023-05-21T08:38:42.000Z,118
2023-05-21T08:39:57.565Z,123
2023-05-21T08:41:13.751Z,123
2023-05-21T08:42:29.943Z,129
2023-05-21T08:43:46.117Z,129
2023-05-21T08:45:02.301Z,135
2023-05-21T08:46:18.729Z,135
2023-05-21T08:47:34.911Z,140
2023-05-21T08:48:51.110Z,140
2023-05-21T08:50:07.000Z,146
2023-05-21T08:51:23.466Z,146
2023-05-21T08:52:39.670Z,146
2023-05-21T08:53:55.849Z,151
2023-05-21T08:55:11.803Z,151
2023-05-21T08:56:27.011Z,151
2023-05-21T08:57:43.202Z,157
2023-05-21T08:58:59.617Z,157
2023-05-21T09:00:15.793Z,157
2023-05-21T09:01:31.999Z,157
2023-05-21T09:02:47.952Z,163
2023-05-21T09:04:04.128Z,163
2023-05-21T09:05:20.545Z,163
2023-05-21T09:06:36.510Z,163
2023-05-21T09:07:52.688Z,163
2023-05-21T09:09:08.885Z,163
2023-05-21T09:10:25.068Z,163
2023-05-21T09:11:41.485Z,163
2023-05-21T09:12:56.450Z,163
2023-05-21T09:14:12.641Z,163
2023-05-21T09:15:28.837Z,168
2023-05-21T09:16:45.015Z,168
2023-05-21T09:18:01.433Z,168
2023-05-21T09:19:17.397Z,174
2023-05-21T09:20:33.817Z,174
2023-05-21T09:21:49.759Z,174
2023-05-21T09:23:05.961Z,180
2023-05-21T09:24:22.142Z,180
2023-05-21T09:25:38.573Z,180
2023-05-21T09:26:54.505Z,180
2023-05-21T09:28:10.939Z,180
2023-05-21T09:29:25.912Z,180
2023-05-21T09:30:42.096Z,180
2023-05-21T09:31:58.282Z,180
2023-05-21T09:33:14.695Z,180
2023-05-21T09:34:30.642Z,180
2023-05-21T09:35:47.070Z,180
2023-05-21T09:37:03.016Z,180
2023-05-21T09:38:19.213Z,180
2023-05-21T09:39:35.401Z,180
2023-05-21T09:40:51.828Z,180
2023-05-21T09:42:07.762Z,180
2023-05-21T09:43:24.200Z,180
2023-05-21T09:44:40.140Z,180
2023-05-21T09:45:55.596Z,180
2023-05-21T09:47:11.533Z,180
2023-05-21T09:48:27.966Z,180
2023-05-21T09:49:43.900Z,180
2023-05-21T09:51:00.087Z,180
2023-05-21T09:52:16.294Z,185
2023-05-21T09:53:32.477Z,191
2023-05-21T09:54:48.658Z,196
2023-05-21T09:56:05.093Z,202
2023-05-21T09:57:21.041Z,208
2023-05-21T09:58:37.460Z,213
2023-05-21T09:59:53.396Z,213
2023-05-21T10:01:09.599Z,208
2023-05-21T10:02:25.039Z,208
2023-05-21T10:03:41.237Z,202
2023-05-21T10:04:57.418Z,196
2023-05-21T10:06:13.594Z,185
2023-05-21T10:07:29.540Z,180
2023-05-21T10:08:45.721Z,174
2023-05-21T10:10:01.917Z,168
2023-05-21T10:11:18.344Z,168
2023-05-21T10:12:34.286Z,168
2023-05-21T10:13:50.721Z,174
2023-05-21T10:15:06.663Z,180
2023-05-21T10:16:22.842Z,180
2023-05-21T10:17:39.281Z,185
2023-05-21T10:18:54.499Z,185
2023-05-21T10:20:10.435Z,191
2023-05-21T10:21:26.614Z,191
2023-05-21T10:22:42.811Z,196
2023-05-21T10:23:58.000Z,196
2023-05-21T10:25:15.179Z,196
2023-05-21T10:26:30.627Z,196
2023-05-21T10:27:46.565Z,196
2023-05-21T10:29:02.749Z,202
2023-05-21T10:30:18.950Z,202
2023-05-21T10:31:35.125Z,208
2023-05-21T10:32:51.325Z,208
2023-05-21T10:34:07.756Z,213
2023-05-21T10:35:23.699Z,219
2023-05-21T10:36:39.882Z,225
2023-05-21T10:37:56.076Z,230
2023-05-21T10:39:12.262Z,236
2023-05-21T10:40:28.449Z,241
2023-05-21T10:41:44.884Z,247
2023-05-21T10:43:00.078Z,253
2023-05-21T10:44:16.272Z,258
2023-05-21T10:45:32.207Z,270
2023-05-21T10:46:48.390Z,275
2023-05-21T10:48:04.574Z,286
2023-05-21T10:49:21.027Z,298
2023-05-21T10:50:36.946Z,303
2023-05-21T10:51:53.389Z,309
2023-05-21T10:53:09.582Z,315
2023-05-21T10:54:25.520Z,315
2023-05-21T10:55:41.702Z,315
2023-05-21T10:56:58.139Z,315
2023-05-21T10:58:14.072Z,315
2023-05-21T10:59:29.543Z,320
2023-05-21T11:00:45.475Z,331
2023-05-21T11:02:01.648Z,337
2023-05-21T11:03:17.849Z,348
2023-05-21T11:04:34.275Z,365
2023-05-21T11:05:50.225Z,371
2023-05-21T11:07:06.400Z,376
2023-05-21T11:08:22.854Z,388
2023-05-21T11:09:38.778Z,382
2023-05-21T11:10:54.961Z,371
2023-05-21T11:12:11.416Z,371
2023-05-21T11:13:27.344Z,360
2023-05-21T11:14:43.783Z,360
2023-05-21T11:15:58.720Z,365
2023-05-21T11:17:14.919Z,371
2023-05-21T11:18:31.114Z,382
2023-05-21T11:19:47.549Z,382
2023-05-21T11:21:03.474Z,371
2023-05-21T11:22:19.915Z,371
2023-05-21T11:23:36.109Z,360
2023-05-21T11:24:52.042Z,348
2023-05-21T11:26:08.226Z,354
2023-05-21T11:27:24.668Z,365
2023-05-21T11:28:40.605Z,371
2023-05-21T11:29:57.038Z,450
2023-05-21T11:31:12.974Z,635
2023-05-21T11:32:28.181Z,736
2023-05-21T11:33:44.369Z,781
2023-05-21T11:35:00.541Z,922
2023-05-21T11:36:16.745Z,933
2023-05-21T11:37:32.917Z,1147
2023-05-21T11:38:49.102Z,1288
2023-05-21T11:40:05.292Z,1203
2023-05-21T11:41:21.482Z,1153
2023-05-21T11:42:37.939Z,1355
2023-05-21T11:43:54.119Z,1372
2023-05-21T11:45:10.308Z,1530
2023-05-21T11:46:26.490Z,1434
2023-05-21T11:47:42.678Z,1389
2023-05-21T11:48:57.895Z,1501
2023-05-21T11:50:14.081Z,1546
2023-05-21T11:51:30.254Z,1777
2023-05-21T11:52:46.449Z,1861
2023-05-21T11:54:02.635Z,1845
2023-05-21T11:55:18.833Z,1867
2023-05-21T11:56:35.021Z,1951
2023-05-21T11:57:51.192Z,2126
2023-05-21T11:59:07.381Z,2160
2023-05-21T12:00:23.575Z,2154
2023-05-21T12:01:39.768Z,2075
2023-05-21T12:02:55.953Z,1991
2023-05-21T12:04:12.132Z,2244
2023-05-21T12:05:27.337Z,2570
2023-05-21T12:06:43.522Z,2514
2023-05-21T12:07:59.721Z,2317
2023-05-21T12:09:15.893Z,1985
2023-05-21T12:10:32.087Z,2193
2023-05-21T12:11:48.284Z,2261
2023-05-21T12:13:04.457Z,2306
2023-05-21T12:14:20.654Z,2205
2023-05-21T12:15:36.835Z,1923
2023-05-21T12:16:53.026Z,1805
2023-05-21T12:18:09.220Z,1895
2023-05-21T12:19:25.400Z,2019
2023-05-21T12:20:41.580Z,2120
2023-05-21T12:21:56.793Z,2165
2023-05-21T12:23:12.986Z,2086
2023-05-21T12:24:29.171Z,2070
2023-05-21T12:25:45.360Z,2193
2023-05-21T12:27:01.544Z,2126
2023-05-21T12:28:17.730Z,2098
2023-05-21T12:29:33.922Z,2109
2023-05-21T12:30:50.108Z,2216
2023-05-21T12:32:06.295Z,2205
2023-05-21T12:33:22.475Z,2098
2023-05-21T12:34:38.660Z,1828
2023-05-21T12:35:54.851Z,1665
2023-05-21T12:37:11.045Z,1541
2023-05-21T12:38:27.352Z,1631
2023-05-21T12:39:43.528Z,1687
2023-05-21T12:40:59.724Z,1670
2023-05-21T12:42:15.907Z,1648
2023-05-21T12:43:32.098Z,1575
2023-05-21T12:44:48.274Z,1541
2023-05-21T12:46:04.473Z,1631
2023-05-21T12:47:20.654Z,1057
2023-05-21T12:48:36.837Z,1530
2023-05-21T12:49:53.035Z,405
2023-05-21T12:51:09.220Z,1766
2023-05-21T12:52:25.393Z,1822
2023-05-21T12:53:41.596Z,1996
2023-05-21T12:54:56.804Z,2070
2023-05-21T12:56:12.994Z,1968
2023-05-21T12:57:29.178Z,1980
2023-05-21T12:58:45.370Z,1968
2023-05-21T13:00:01.548Z,1816
2023-05-21T13:01:17.742Z,1929
2023-05-21T13:02:33.928Z,2025
2023-05-21T13:03:50.104Z,2036
2023-05-21T13:05:06.288Z,2053
2023-05-21T13:06:22.488Z,2041
2023-05-21T13:07:38.660Z,1980
2023-05-21T13:08:54.844Z,1895
2023-05-21T13:10:11.042Z,1890
2023-05-21T13:11:26.252Z,1839
2023-05-21T13:12:42.426Z,1530
2023-05-21T13:13:58.613Z,601
2023-05-21T13:15:14.829Z,382
2023-05-21T13:16:31.003Z,489
2023-05-21T13:17:47.180Z,1102
2023-05-21T13:19:03.378Z,1496
2023-05-21T13:20:19.555Z,1811
2023-05-21T13:21:35.749Z,2064
2023-05-21T13:22:51.924Z,2233
2023-05-21T13:24:08.125Z,2261
2023-05-21T13:25:24.312Z,2244
2023-05-21T13:26:40.490Z,1642
2023-05-21T13:27:55.685Z,1878
2023-05-21T13:29:11.905Z,1935
2023-05-21T13:30:28.073Z,2013
2023-05-21T13:31:44.256Z,1968
2023-05-21T13:33:00.446Z,1732
2023-05-21T13:34:16.620Z,433
2023-05-21T13:35:32.806Z,1490
2023-05-21T13:36:49.030Z,1546
2023-05-21T13:38:05.215Z,1681
2023-05-21T13:39:21.368Z,1237
2023-05-21T13:40:37.567Z,1783
2023-05-21T13:41:53.754Z,1895
2023-05-21T13:43:09.949Z,1839
2023-05-21T13:44:25.158Z,1687
2023-05-21T13:45:41.330Z,1344
2023-05-21T13:46:57.511Z,849
2023-05-21T13:48:13.703Z,1513
2023-05-21T13:49:29.887Z,1665
2023-05-21T13:50:46.107Z,1721
2023-05-21T13:52:02.260Z,871
2023-05-21T13:53:18.480Z,410
2023-05-21T13:54:34.641Z,1479
2023-05-21T13:55:50.827Z,1316
2023-05-21T13:57:07.018Z,1350
2023-05-21T13:58:23.211Z,1226
2023-05-21T13:59:39.387Z,1147
2023-05-21T14:00:54.597Z,978
2023-05-21T14:02:10.771Z,562
2023-05-21T14:03:26.958Z,1119
2023-05-21T14:04:43.187Z,1428
2023-05-21T14:05:59.373Z,1535
2023-05-21T14:07:15.558Z,1597
2023-05-21T14:08:31.712Z,1687
2023-05-21T14:09:47.895Z,1681
2023-05-21T14:11:04.081Z,1468
2023-05-21T14:12:20.282Z,1485
2023-05-21T14:13:36.460Z,1400
2023-05-21T14:14:52.682Z,1209
2023-05-21T14:16:08.863Z,933
2023-05-21T14:17:24.071Z,590
2023-05-21T14:18:40.232Z,472
2023-05-21T14:19:56.445Z,410
2023-05-21T14:21:12.611Z,444
2023-05-21T14:22:28.807Z,360
2023-05-21T14:23:45.002Z,405
2023-05-21T14:25:01.184Z,421
2023-05-21T14:26:17.358Z,371
2023-05-21T14:27:33.545Z,371
2023-05-21T14:28:49.716Z,348
2023-05-21T14:30:05.904Z,337
2023-05-21T14:31:22.123Z,303
2023-05-21T14:32:38.311Z,292
2023-05-21T14:33:53.496Z,303
2023-05-21T14:35:09.680Z,286
2023-05-21T14:36:25.854Z,286
2023-05-21T14:37:42.082Z,286
2023-05-21T14:38:58.237Z,303
2023-05-21T14:40:14.444Z,320
2023-05-21T14:41:30.649Z,298
2023-05-21T14:42:45.827Z,315
2023-05-21T14:44:02.011Z,331
2023-05-21T14:45:18.226Z,343
2023-05-21T14:46:34.386Z,331
2023-05-21T14:47:50.578Z,320
2023-05-21T14:49:06.755Z,309
2023-05-21T14:50:22.938Z,303
2023-05-21T14:51:39.134Z,309
2023-05-21T14:52:55.354Z,326
2023-05-21T14:54:11.515Z,320
2023-05-21T14:55:27.690Z,303
2023-05-21T14:56:43.929Z,292
2023-05-21T14:58:00.076Z,286
2023-05-21T14:59:15.289Z,281
2023-05-21T15:00:31.507Z,281
2023-05-21T15:01:47.666Z,270
2023-05-21T15:03:03.877Z,241
2023-05-21T15:04:20.025Z,219
2023-05-21T15:05:36.221Z,213
2023-05-21T15:06:52.405Z,208
2023-05-21T15:08:08.635Z,236
2023-05-21T15:09:24.814Z,247
2023-05-21T15:10:40.975Z,258
2023-05-21T15:11:57.166Z,264
2023-05-21T15:13:13.352Z,264
2023-05-21T15:14:29.533Z,258
2023-05-21T15:15:44.776Z,270
2023-05-21T15:17:00.927Z,270
2023-05-21T15:18:17.165Z,253
2023-05-21T15:19:33.359Z,241
2023-05-21T15:20:49.501Z,236
2023-05-21T15:22:05.694Z,253
2023-05-21T15:23:21.924Z,241
2023-05-21T15:24:38.070Z,225
2023-05-21T15:25:54.247Z,213
2023-05-21T15:27:10.447Z,208
2023-05-21T15:28:26.627Z,208
2023-05-21T15:29:42.818Z,208
2023-05-21T15:30:59.015Z,219
2023-05-21T15:32:14.209Z,225
2023-05-21T15:33:30.395Z,219
2023-05-21T15:34:46.634Z,219
2023-05-21T15:36:02.771Z,213
2023-05-21T15:37:18.965Z,213
2023-05-21T15:38:35.189Z,213
2023-05-21T15:39:51.339Z,208
2023-05-21T15:41:07.574Z,208
2023-05-21T15:42:23.723Z,208
2023-05-21T15:43:39.923Z,191
2023-05-21T15:44:56.099Z,168
2023-05-21T15:46:12.333Z,163
2023-05-21T15:47:28.522Z,151
2023-05-21T15:48:43.717Z,151
2023-05-21T15:49:59.861Z,157
2023-05-21T15:51:16.061Z,163
2023-05-21T15:52:32.251Z,163
2023-05-21T15:53:48.483Z,168
2023-05-21T15:55:04.631Z,168
2023-05-21T15:56:20.853Z,174
2023-05-21T15:57:37.040Z,180
2023-05-21T15:58:53.191Z,174
2023-05-21T16:00:09.423Z,163
2023-05-21T16:01:25.566Z,157
2023-05-21T16:02:41.762Z,151
2023-05-21T16:03:58.000Z,140
2023-05-21T16:05:13.156Z,135
2023-05-21T16:06:29.335Z,129
2023-05-21T16:07:45.532Z,129
2023-05-21T16:09:01.720Z,123
2023-05-21T16:10:17.906Z,123
2023-05-21T16:11:34.099Z,118
2023-05-21T16:12:50.321Z,118
2023-05-21T16:14:06.521Z,118
2023-05-21T16:15:22.663Z,118
2023-05-21T16:16:38.849Z,123
2023-05-21T16:17:55.035Z,123
2023-05-21T16:19:11.225Z,123
2023-05-21T16:20:27.409Z,123
2023-05-21T16:21:42.618Z,123
2023-05-21T16:22:58.852Z,118
2023-05-21T16:24:15.047Z,118
2023-05-21T16:25:31.181Z,118
2023-05-21T16:26:47.428Z,118
2023-05-21T16:28:03.557Z,112
2023-05-21T16:29:19.810Z,112
2023-05-21T16:30:35.940Z,112
2023-05-21T16:31:52.189Z,112
2023-05-21T16:33:08.000Z,112
2023-05-21T16:34:24.500Z,112
2023-05-21T16:35:40.687Z,112
2023-05-21T16:36:56.891Z,118
2023-05-21T16:38:12.133Z,118
2023-05-21T16:39:28.339Z,112
2023-05-21T16:40:44.459Z,112
2023-05-21T16:42:00.656Z,112
2023-05-21T16:43:16.854Z,112
2023-05-21T16:44:33.037Z,112
2023-05-21T16:45:49.216Z,112
2023-05-21T16:47:05.461Z,112
2023-05-21T16:48:21.647Z,112
2023-05-21T16:49:37.837Z,112
2023-05-21T16:50:54.033Z,112
2023-05-21T16:52:10.171Z,112
2023-05-21T16:53:26.353Z,112
2023-05-21T16:54:41.616Z,106
2023-05-21T16:55:57.749Z,106
2023-05-21T16:57:13.949Z,101
2023-05-21T16:58:30.128Z,101
2023-05-21T16:59:46.376Z,95
2023-05-21T17:01:02.554Z,95
2023-05-21T17:02:18.690Z,90
2023-05-21T17:03:34.884Z,90
2023-05-21T17:04:51.082Z,84
2023-05-21T17:06:07.261Z,84
2023-05-21T17:07:23.444Z,78
2023-05-21T17:08:39.639Z,78
2023-05-21T17:09:55.887Z,78
2023-05-21T17:11:11.037Z,73
2023-05-21T17:12:27.291Z,73
2023-05-21T17:13:43.462Z,67
2023-05-21T17:14:59.590Z,67
2023-05-21T17:16:15.783Z,67
2023-05-21T17:17:32.043Z,67
2023-05-21T17:18:48.157Z,61
2023-05-21T17:20:04.347Z,61
2023-05-21T17:21:20.546Z,61
2023-05-21T17:22:36.735Z,61
2023-05-21T17:23:52.914Z,56
2023-05-21T17:25:09.179Z,56
2023-05-21T17:26:25.304Z,56
2023-05-21T17:27:40.564Z,56
2023-05-21T17:28:56.696Z,50
2023-05-21T17:30:12.883Z,50
2023-05-21T17:31:29.076Z,45
2023-05-21T17:32:45.270Z,45
2023-05-21T17:34:01.452Z,45
2023-05-21T17:35:17.642Z,45
2023-05-21T17:36:33.822Z,39
2023-05-21T17:37:50.082Z,39
2023-05-21T17:39:06.211Z,39
2023-05-21T17:40:22.450Z,39
2023-05-21T17:41:38.579Z,39
2023-05-21T17:42:54.827Z,33
2023-05-21T17:44:09.978Z,33
2023-05-21T17:45:26.165Z,33
2023-05-21T17:46:42.361Z,33
2023-05-21T17:47:58.534Z,33
2023-05-21T17:49:14.727Z,33